Time;durP1;ratioP1;P1;durP2;ratioP2;P2;SDS_P1;SDS_P2;PMS_P1;PMS_P2;Temp;Humidity;BMP_temperature;BMP_pressure;BME280_temperature;BME280_humidity;BME280_pressure;Samples;Min_cycle;Max_cycle;Signal;HPM_P1;HPM_P2
2022/08/27 00:00:14;;;;;;;0.80;0.80;;;;;;;;;;5024616;28;20227;-50
2022/08/27 00:02:41;;;;;;;0.80;0.80;;;;;;;;;;5017885;28;20220;-51
2022/08/27 00:05:07;;;;;;;0.90;0.90;;;;;;;;;;5028054;28;20223;-51
2022/08/27 00:07:33;;;;;;;0.90;0.90;;;;;;;;;;5022554;28;20222;-51
2022/08/27 00:09:59;;;;;;;0.90;0.90;;;;;;;;;;5035189;28;20222;-51
2022/08/27 00:12:25;;;;;;;0.80;0.80;;;;;;;;;;5032158;28;20268;-52
2022/08/27 00:14:51;;;;;;;0.90;0.90;;;;;;;;;;5014355;28;20246;-53
2022/08/27 00:17:17;;;;;;;0.90;0.90;;;;;;;;;;5019646;28;20224;-51
2022/08/27 00:19:43;;;;;;;0.90;0.90;;;;;;;;;;5025503;28;20869;-52
2022/08/27 00:22:09;;;;;;;0.80;0.80;;;;;;;;;;5028563;28;20219;-52
2022/08/27 00:24:35;;;;;;;0.70;0.70;;;;;;;;;;5022381;28;20228;-51
2022/08/27 00:27:01;;;;;;;0.80;0.80;;;;;;;;;;5031570;28;20220;-52
2022/08/27 00:29:27;;;;;;;0.80;0.80;;;;;;;;;;5009304;28;20286;-53
2022/08/27 00:31:53;;;;;;;0.90;0.90;;;;;;;;;;5030712;28;20723;-53
2022/08/27 00:34:19;;;;;;;0.70;0.70;;;;;;;;;;5014044;28;20344;-52
2022/08/27 00:36:45;;;;;;;0.87;0.87;;;;;;;;;;5031212;28;20222;-52
2022/08/27 00:39:11;;;;;;;0.73;0.73;;;;;;;;;;5036756;28;20638;-51
2022/08/27 00:41:38;;;;;;;0.80;0.80;;;;;;;;;;5034345;28;20567;-52
2022/08/27 00:44:05;;;;;;;0.70;0.70;;;;;;;;;;5023662;28;20796;-53
2022/08/27 00:46:44;;;;;;;0.70;0.70;;;;;;;;;;5027814;28;20220;-51
2022/08/27 00:49:19;;;;;;;0.83;0.83;;;;;;;;;;5027659;28;20231;-51
2022/08/27 00:51:46;;;;;;;0.80;0.80;;;;;;;;;;5027750;28;20223;-52
2022/08/27 00:54:12;;;;;;;0.73;0.73;;;;;;;;;;5012201;28;20349;-51
2022/08/27 00:56:43;;;;;;;0.70;0.70;;;;;;;;;;5024807;28;20220;-52
2022/08/27 00:59:09;;;;;;;0.73;0.73;;;;;;;;;;5032848;28;20255;-52
2022/08/27 01:02:17;;;;;;;0.80;0.80;;;;;;;;;;5024902;28;20224;-52
2022/08/27 01:04:22;;;;;;;0.70;0.70;;;;;;;;;;5027165;28;20327;-53
2022/08/27 01:06:48;;;;;;;0.70;0.70;;;;;;;;;;5022185;28;20228;-51
2022/08/27 01:09:14;;;;;;;0.70;0.70;;;;;;;;;;5021051;28;20225;-52
2022/08/27 01:11:40;;;;;;;0.70;0.70;;;;;;;;;;5025151;28;20232;-53
2022/08/27 01:14:06;;;;;;;0.80;0.80;;;;;;;;;;5025456;28;20231;-52
2022/08/27 01:16:34;;;;;;;0.77;0.77;;;;;;;;;;5016223;28;20338;-51
2022/08/27 01:19:00;;;;;;;0.70;0.70;;;;;;;;;;4998081;28;20251;-51
2022/08/27 01:21:28;;;;;;;0.70;0.70;;;;;;;;;;4988931;28;20935;-53
2022/08/27 01:23:57;;;;;;;0.73;0.73;;;;;;;;;;4964134;28;21285;-51
2022/08/27 01:26:23;;;;;;;0.70;0.70;;;;;;;;;;5004958;28;20219;-53
2022/08/27 01:28:49;;;;;;;0.70;0.70;;;;;;;;;;5002845;28;20226;-53
2022/08/27 01:31:15;;;;;;;0.60;0.60;;;;;;;;;;4998210;28;20693;-52
2022/08/27 01:33:51;;;;;;;0.70;0.70;;;;;;;;;;5019403;28;20714;-52
2022/08/27 01:36:17;;;;;;;0.60;0.60;;;;;;;;;;5010257;28;20677;-52
2022/08/27 01:38:43;;;;;;;0.70;0.70;;;;;;;;;;5029678;28;20263;-53
2022/08/27 01:41:11;;;;;;;0.70;0.70;;;;;;;;;;5011681;28;20240;-53
2022/08/27 01:43:37;;;;;;;0.70;0.70;;;;;;;;;;5026815;28;20645;-52
2022/08/27 01:46:03;;;;;;;0.60;0.60;;;;;;;;;;5028806;28;20336;-52
2022/08/27 01:48:29;;;;;;;0.70;0.70;;;;;;;;;;5032784;28;20231;-53
2022/08/27 01:50:55;;;;;;;0.60;0.60;;;;;;;;;;5021330;28;20232;-51
2022/08/27 01:53:22;;;;;;;0.73;0.73;;;;;;;;;;5024553;28;20251;-50
2022/08/27 01:55:49;;;;;;;0.73;0.73;;;;;;;;;;5034469;28;20681;-51
2022/08/27 01:58:15;;;;;;;0.60;0.60;;;;;;;;;;5033866;28;20235;-54
2022/08/27 02:00:42;;;;;;;0.90;0.90;;;;;;;;;;5014015;28;20217;-53
2022/08/27 02:03:08;;;;;;;0.73;0.73;;;;;;;;;;5027277;28;20230;-52
2022/08/27 02:05:34;;;;;;;0.70;0.70;;;;;;;;;;5030478;28;20231;-52
2022/08/27 02:08:00;;;;;;;0.70;0.70;;;;;;;;;;5030914;28;20714;-52
2022/08/27 02:10:27;;;;;;;0.70;0.70;;;;;;;;;;5022900;28;20243;-51
2022/08/27 02:12:53;;;;;;;0.80;0.80;;;;;;;;;;5028335;28;21775;-52
2022/08/27 02:15:19;;;;;;;0.80;0.80;;;;;;;;;;5017336;28;20232;-53
2022/08/27 02:17:46;;;;;;;0.60;0.60;;;;;;;;;;5032584;28;20229;-52
2022/08/27 02:20:12;;;;;;;0.60;0.60;;;;;;;;;;5026785;28;20249;-51
2022/08/27 02:22:38;;;;;;;0.63;0.63;;;;;;;;;;5026398;28;20591;-53
2022/08/27 02:25:05;;;;;;;0.70;0.70;;;;;;;;;;5012680;28;20281;-53
2022/08/27 02:27:32;;;;;;;0.70;0.70;;;;;;;;;;5031472;28;20234;-53
2022/08/27 02:29:58;;;;;;;0.70;0.70;;;;;;;;;;5013973;28;20252;-53
2022/08/27 02:32:24;;;;;;;0.70;0.70;;;;;;;;;;5025567;28;20240;-53
2022/08/27 02:34:50;;;;;;;0.60;0.60;;;;;;;;;;5026980;28;20678;-53
2022/08/27 02:37:16;;;;;;;0.70;0.70;;;;;;;;;;5016927;28;20252;-53
2022/08/27 02:39:42;;;;;;;0.80;0.80;;;;;;;;;;4999871;28;20230;-51
2022/08/27 02:42:08;;;;;;;0.70;0.70;;;;;;;;;;5012982;28;20221;-51
2022/08/27 02:44:34;;;;;;;0.67;0.67;;;;;;;;;;5002090;28;20240;-52
2022/08/27 02:47:01;;;;;;;0.60;0.60;;;;;;;;;;5011051;28;20222;-53
2022/08/27 02:49:27;;;;;;;0.70;0.70;;;;;;;;;;5009971;28;20212;-51
2022/08/27 02:51:54;;;;;;;0.70;0.70;;;;;;;;;;5013954;28;20241;-53
2022/08/27 02:54:20;;;;;;;0.60;0.60;;;;;;;;;;5010658;28;20619;-52
2022/08/27 02:56:46;;;;;;;0.73;0.73;;;;;;;;;;5019601;28;20315;-51
2022/08/27 02:59:13;;;;;;;0.57;0.57;;;;;;;;;;5015074;28;20217;-51
2022/08/27 03:01:39;;;;;;;0.77;0.77;;;;;;;;;;5003228;28;20293;-53
2022/08/27 03:04:05;;;;;;;0.70;0.70;;;;;;;;;;5007455;28;20646;-52
2022/08/27 03:06:31;;;;;;;0.70;0.70;;;;;;;;;;5004241;28;20243;-52
2022/08/27 03:08:57;;;;;;;0.70;0.70;;;;;;;;;;5003020;28;20223;-52
2022/08/27 03:11:23;;;;;;;0.87;0.87;;;;;;;;;;4992812;28;20259;-51
2022/08/27 03:13:50;;;;;;;0.70;0.70;;;;;;;;;;5014352;28;20708;-53
2022/08/27 03:16:15;;;;;;;0.73;0.73;;;;;;;;;;5008216;28;20274;-52
2022/08/27 03:18:41;;;;;;;0.60;0.60;;;;;;;;;;5004166;28;21068;-52
2022/08/27 03:21:08;;;;;;;0.80;0.80;;;;;;;;;;5013505;28;20220;-52
2022/08/27 03:23:34;;;;;;;0.70;0.70;;;;;;;;;;5016651;28;20235;-53
2022/08/27 03:26:00;;;;;;;0.70;0.70;;;;;;;;;;4998381;28;20229;-52
2022/08/27 03:28:27;;;;;;;0.80;0.80;;;;;;;;;;4998134;28;20672;-51
2022/08/27 03:30:57;;;;;;;0.70;0.70;;;;;;;;;;4998948;28;20350;-51
2022/08/27 03:33:23;;;;;;;0.70;0.70;;;;;;;;;;4999924;28;20228;-51
2022/08/27 03:35:49;;;;;;;0.70;0.70;;;;;;;;;;4997205;28;20283;-52
2022/08/27 03:38:15;;;;;;;0.70;0.70;;;;;;;;;;5008270;28;20314;-54
2022/08/27 03:40:42;;;;;;;0.80;0.80;;;;;;;;;;5001987;28;20228;-51
2022/08/27 03:43:08;;;;;;;0.60;0.60;;;;;;;;;;5020871;28;20803;-52
2022/08/27 03:45:34;;;;;;;0.70;0.70;;;;;;;;;;5022460;28;20307;-52
2022/08/27 03:48:00;;;;;;;0.87;0.87;;;;;;;;;;5018519;28;20735;-54
2022/08/27 03:50:26;;;;;;;0.67;0.67;;;;;;;;;;5016020;28;20286;-53
2022/08/27 03:52:51;;;;;;;0.70;0.70;;;;;;;;;;5011082;28;20728;-52
2022/08/27 03:55:17;;;;;;;0.60;0.60;;;;;;;;;;5026088;28;20216;-51
2022/08/27 03:57:43;;;;;;;0.80;0.80;;;;;;;;;;5021149;28;20435;-51
2022/08/27 04:00:11;;;;;;;0.80;0.80;;;;;;;;;;5001164;28;21665;-52
2022/08/27 04:02:37;;;;;;;0.80;0.80;;;;;;;;;;5004421;28;20233;-52
2022/08/27 04:05:03;;;;;;;0.80;0.80;;;;;;;;;;5011549;28;20656;-52
2022/08/27 04:07:29;;;;;;;0.80;0.80;;;;;;;;;;5021735;28;20284;-53
2022/08/27 04:09:55;;;;;;;0.70;0.70;;;;;;;;;;5006969;28;20234;-51
2022/08/27 04:12:21;;;;;;;0.70;0.70;;;;;;;;;;5011665;28;20693;-51
2022/08/27 04:14:47;;;;;;;0.80;0.80;;;;;;;;;;5001847;28;20221;-51
2022/08/27 04:17:13;;;;;;;0.70;0.70;;;;;;;;;;5010512;28;20223;-52
2022/08/27 04:19:39;;;;;;;0.70;0.70;;;;;;;;;;5012607;28;20626;-53
2022/08/27 04:22:06;;;;;;;0.90;0.90;;;;;;;;;;5018212;28;20238;-51
2022/08/27 04:24:33;;;;;;;0.70;0.70;;;;;;;;;;5003029;28;20217;-53
2022/08/27 04:26:59;;;;;;;0.70;0.70;;;;;;;;;;5020870;28;20406;-52
2022/08/27 04:29:25;;;;;;;0.73;0.73;;;;;;;;;;5018168;28;20227;-52
2022/08/27 04:31:51;;;;;;;0.70;0.70;;;;;;;;;;5008857;28;20240;-51
2022/08/27 04:34:17;;;;;;;0.60;0.60;;;;;;;;;;5023539;28;20232;-50
2022/08/27 04:36:44;;;;;;;0.70;0.70;;;;;;;;;;5018206;28;20255;-53
2022/08/27 04:39:10;;;;;;;0.70;0.70;;;;;;;;;;5018578;28;20637;-51
2022/08/27 04:41:36;;;;;;;0.70;0.70;;;;;;;;;;5014497;28;20229;-52
2022/08/27 04:44:03;;;;;;;0.60;0.60;;;;;;;;;;5018164;28;20228;-51
2022/08/27 04:46:33;;;;;;;0.90;0.90;;;;;;;;;;5016279;28;20843;-53
2022/08/27 04:49:00;;;;;;;0.80;0.80;;;;;;;;;;5025760;28;20583;-51
2022/08/27 04:51:26;;;;;;;0.70;0.70;;;;;;;;;;5015280;28;20231;-53
2022/08/27 04:53:52;;;;;;;0.70;0.70;;;;;;;;;;5020089;28;20343;-52
2022/08/27 04:56:20;;;;;;;0.70;0.70;;;;;;;;;;5016227;28;20426;-52
2022/08/27 04:58:46;;;;;;;0.70;0.70;;;;;;;;;;5028105;28;20230;-51
2022/08/27 05:01:15;;;;;;;0.70;0.70;;;;;;;;;;5014230;28;20221;-52
2022/08/27 05:03:41;;;;;;;0.70;0.70;;;;;;;;;;5008127;28;20294;-52
2022/08/27 05:06:07;;;;;;;0.73;0.73;;;;;;;;;;5022010;28;20936;-51
2022/08/27 05:08:33;;;;;;;0.70;0.70;;;;;;;;;;5007120;28;20722;-52
2022/08/27 05:11:00;;;;;;;0.67;0.67;;;;;;;;;;5014197;28;20246;-52
2022/08/27 05:13:26;;;;;;;0.80;0.80;;;;;;;;;;5019379;28;20256;-51
2022/08/27 05:16:03;;;;;;;0.70;0.70;;;;;;;;;;5024785;27;20629;-52
2022/08/27 05:18:29;;;;;;;0.70;0.70;;;;;;;;;;5040643;28;20560;-52
2022/08/27 05:20:55;;;;;;;0.60;0.60;;;;;;;;;;5018782;28;21638;-52
2022/08/27 05:23:21;;;;;;;0.70;0.70;;;;;;;;;;5018566;28;20224;-52
2022/08/27 05:25:48;;;;;;;0.70;0.70;;;;;;;;;;5030115;28;20217;-52
2022/08/27 05:28:14;;;;;;;0.70;0.70;;;;;;;;;;4996704;28;20216;-53
2022/08/27 05:30:41;;;;;;;0.70;0.70;;;;;;;;;;5021036;28;20232;-51
2022/08/27 05:33:07;;;;;;;0.73;0.73;;;;;;;;;;5016812;28;20228;-52
2022/08/27 05:35:39;;;;;;;0.80;0.80;;;;;;;;;;5007611;28;20282;-52
2022/08/27 05:38:05;;;;;;;0.70;0.70;;;;;;;;;;5003580;28;20954;-54
2022/08/27 05:40:32;;;;;;;0.70;0.70;;;;;;;;;;5012588;28;20223;-52
2022/08/27 05:42:58;;;;;;;0.70;0.70;;;;;;;;;;5010502;28;20464;-50
2022/08/27 05:45:24;;;;;;;0.70;0.70;;;;;;;;;;5006581;28;21008;-51
2022/08/27 05:47:50;;;;;;;0.80;0.80;;;;;;;;;;5009143;28;20602;-53
2022/08/27 05:50:16;;;;;;;0.70;0.70;;;;;;;;;;5014102;28;20377;-52
2022/08/27 05:52:42;;;;;;;0.70;0.70;;;;;;;;;;5016684;28;20746;-51
2022/08/27 05:55:08;;;;;;;0.73;0.73;;;;;;;;;;5029311;28;20231;-52
2022/08/27 05:57:34;;;;;;;0.80;0.80;;;;;;;;;;5027350;28;20291;-53
2022/08/27 06:02:45;;;;;;;0.80;0.80;;;;;;;;;;5018996;28;20692;-52
2022/08/27 06:05:11;;;;;;;1.20;1.20;;;;;;;;;;5020501;28;20225;-53
2022/08/27 06:07:37;;;;;;;1.13;1.13;;;;;;;;;;5013334;28;20232;-50
2022/08/27 06:10:06;;;;;;;1.10;1.10;;;;;;;;;;5007181;28;20580;-54
2022/08/27 06:12:32;;;;;;;1.20;1.20;;;;;;;;;;5006524;28;20578;-52
2022/08/27 06:14:58;;;;;;;1.10;1.10;;;;;;;;;;5004148;28;20264;-51
2022/08/27 06:17:24;;;;;;;1.40;1.40;;;;;;;;;;5002143;28;20792;-52
2022/08/27 06:19:50;;;;;;;1.20;1.20;;;;;;;;;;5018843;28;20645;-53
2022/08/27 06:22:15;;;;;;;1.30;1.30;;;;;;;;;;4997884;28;20358;-51
2022/08/27 06:24:42;;;;;;;1.40;1.40;;;;;;;;;;5000223;28;20212;-52
2022/08/27 06:27:09;;;;;;;1.40;1.40;;;;;;;;;;5014476;28;20788;-52
2022/08/27 06:29:35;;;;;;;1.30;1.30;;;;;;;;;;5016401;28;20828;-53
2022/08/27 06:32:01;;;;;;;1.10;1.10;;;;;;;;;;5020728;28;20271;-52
2022/08/27 06:34:27;;;;;;;3.10;2.80;;;;;;;;;;5022926;28;20227;-52
2022/08/27 06:36:53;;;;;;;0.90;0.90;;;;;;;;;;5016954;28;20739;-51
2022/08/27 06:39:19;;;;;;;0.90;0.90;;;;;;;;;;5020284;28;21338;-52
2022/08/27 06:41:45;;;;;;;0.90;0.90;;;;;;;;;;5032581;28;20517;-52
2022/08/27 06:44:12;;;;;;;0.90;0.90;;;;;;;;;;5030285;28;20717;-52
2022/08/27 06:46:38;;;;;;;0.80;0.80;;;;;;;;;;5019413;28;20219;-53
2022/08/27 06:49:04;;;;;;;0.90;0.90;;;;;;;;;;5022681;28;20227;-52
2022/08/27 06:51:31;;;;;;;0.80;0.80;;;;;;;;;;5019481;28;20228;-52
2022/08/27 06:53:58;;;;;;;0.80;0.80;;;;;;;;;;5007050;28;20621;-54
2022/08/27 06:56:24;;;;;;;0.90;0.90;;;;;;;;;;5029193;28;20228;-54
2022/08/27 06:58:54;;;;;;;0.80;0.80;;;;;;;;;;5016944;28;20392;-52
2022/08/27 07:01:24;;;;;;;0.90;0.90;;;;;;;;;;5028308;28;20224;-51
2022/08/27 07:03:50;;;;;;;0.80;0.80;;;;;;;;;;5031466;28;20686;-52
2022/08/27 07:06:16;;;;;;;0.80;0.80;;;;;;;;;;5032015;28;20217;-52
2022/08/27 07:08:43;;;;;;;0.90;0.90;;;;;;;;;;5035507;28;20220;-52
2022/08/27 07:11:10;;;;;;;1.00;1.00;;;;;;;;;;5018769;28;22542;-53
2022/08/27 07:13:36;;;;;;;1.00;1.00;;;;;;;;;;5013146;28;20242;-52
2022/08/27 07:16:05;;;;;;;0.90;0.90;;;;;;;;;;5020852;28;20220;-53
2022/08/27 07:18:31;;;;;;;0.90;0.90;;;;;;;;;;5037712;28;20238;-52
2022/08/27 07:20:57;;;;;;;1.00;1.00;;;;;;;;;;5034159;28;20236;-51
2022/08/27 07:23:23;;;;;;;0.80;0.80;;;;;;;;;;5037873;28;20219;-54
2022/08/27 07:25:49;;;;;;;0.80;0.80;;;;;;;;;;5031091;28;20281;-52
2022/08/27 07:28:15;;;;;;;0.87;0.87;;;;;;;;;;5028288;28;20229;-52
2022/08/27 07:30:41;;;;;;;0.80;0.80;;;;;;;;;;5029133;28;20225;-51
2022/08/27 07:33:07;;;;;;;0.70;0.70;;;;;;;;;;5035075;28;20262;-51
2022/08/27 07:35:33;;;;;;;0.80;0.80;;;;;;;;;;5026562;28;20221;-53
2022/08/27 07:37:59;;;;;;;0.90;0.90;;;;;;;;;;5025522;28;20243;-52
2022/08/27 07:40:25;;;;;;;0.90;0.90;;;;;;;;;;5032024;28;20615;-53
2022/08/27 07:45:39;;;;;;;1.00;1.00;;;;;;;;;;5027175;28;20315;-52
2022/08/27 07:48:05;;;;;;;0.87;0.87;;;;;;;;;;5014990;28;20224;-52
2022/08/27 07:50:32;;;;;;;0.80;0.80;;;;;;;;;;5023024;28;20608;-51
2022/08/27 07:52:58;;;;;;;0.90;0.90;;;;;;;;;;5008409;28;20956;-51
2022/08/27 07:55:24;;;;;;;0.80;0.80;;;;;;;;;;5020755;28;20258;-52
2022/08/27 07:57:51;;;;;;;0.97;0.97;;;;;;;;;;5023650;28;20334;-52
2022/08/27 08:00:17;;;;;;;0.87;0.87;;;;;;;;;;5028993;28;20251;-54
2022/08/27 08:02:43;;;;;;;0.80;0.80;;;;;;;;;;5025650;28;21315;-53
2022/08/27 08:05:11;;;;;;;0.77;0.77;;;;;;;;;;5006075;28;20220;-52
2022/08/27 08:07:37;;;;;;;0.90;0.90;;;;;;;;;;5022104;28;20560;-51
2022/08/27 08:10:04;;;;;;;0.80;0.80;;;;;;;;;;5028510;28;20669;-53
2022/08/27 08:12:30;;;;;;;0.80;0.80;;;;;;;;;;5027098;28;20668;-53
2022/08/27 08:14:57;;;;;;;0.93;0.93;;;;;;;;;;5030244;28;26044;-52
2022/08/27 08:17:24;;;;;;;0.80;0.80;;;;;;;;;;5038829;28;20226;-53
2022/08/27 08:19:50;;;;;;;0.90;0.90;;;;;;;;;;5017434;28;20220;-52
2022/08/27 08:22:16;;;;;;;0.93;0.93;;;;;;;;;;5038310;28;20734;-52
2022/08/27 08:24:42;;;;;;;0.80;0.80;;;;;;;;;;5032471;28;21747;-52
2022/08/27 08:27:10;;;;;;;0.70;0.70;;;;;;;;;;5034113;28;20712;-51
2022/08/27 08:29:36;;;;;;;0.90;0.90;;;;;;;;;;5023676;28;20308;-53
2022/08/27 08:32:02;;;;;;;0.90;0.90;;;;;;;;;;5017954;28;20219;-53
2022/08/27 08:34:28;;;;;;;0.90;0.90;;;;;;;;;;5026242;28;20630;-52
2022/08/27 08:36:54;;;;;;;0.90;0.90;;;;;;;;;;5022022;28;20313;-51
2022/08/27 08:39:20;;;;;;;0.80;0.80;;;;;;;;;;5016027;28;20240;-52
2022/08/27 08:41:53;;;;;;;0.80;0.80;;;;;;;;;;5021380;28;20650;-52
2022/08/27 08:44:22;;;;;;;0.90;0.90;;;;;;;;;;5031426;28;20605;-53
2022/08/27 08:46:49;;;;;;;0.87;0.87;;;;;;;;;;5036154;28;20732;-52
2022/08/27 08:49:27;;;;;;;0.80;0.80;;;;;;;;;;5041108;28;20217;-52
2022/08/27 08:51:53;;;;;;;1.00;1.00;;;;;;;;;;5014634;28;20285;-52
2022/08/27 08:54:20;;;;;;;0.82;0.82;;;;;;;;;;5035506;28;20219;-53
2022/08/27 08:56:55;;;;;;;0.90;0.90;;;;;;;;;;5040767;28;20221;-52
2022/08/27 08:59:24;;;;;;;0.90;0.90;;;;;;;;;;5027129;28;20311;-51
2022/08/27 09:01:50;;;;;;;0.90;0.90;;;;;;;;;;5026622;28;20235;-52
2022/08/27 09:04:16;;;;;;;0.80;0.80;;;;;;;;;;5026397;28;20253;-53
2022/08/27 09:07:03;;;;;;;0.90;0.90;;;;;;;;;;5005704;28;20223;-52
2022/08/27 09:09:34;;;;;;;0.88;0.88;;;;;;;;;;5014353;28;20231;-53
2022/08/27 09:12:03;;;;;;;0.90;0.90;;;;;;;;;;5007401;28;20270;-51
2022/08/27 09:14:36;;;;;;;0.90;0.90;;;;;;;;;;5007094;28;20340;-52
2022/08/27 09:17:02;;;;;;;1.05;1.05;;;;;;;;;;5028579;28;20313;-52
2022/08/27 09:19:28;;;;;;;0.90;0.90;;;;;;;;;;5019270;28;20703;-52
2022/08/27 09:22:03;;;;;;;0.90;0.90;;;;;;;;;;5036032;28;20235;-52
2022/08/27 09:24:48;;;;;;;1.00;1.00;;;;;;;;;;5028024;28;20720;-56
2022/08/27 09:27:14;;;;;;;0.95;0.95;;;;;;;;;;5027325;28;20671;-53
2022/08/27 09:29:54;;;;;;;0.90;0.90;;;;;;;;;;5008985;28;20281;-51
2022/08/27 09:32:26;;;;;;;0.80;0.80;;;;;;;;;;5031237;28;20238;-52
2022/08/27 09:34:54;;;;;;;0.90;0.90;;;;;;;;;;5017185;28;20703;-52
2022/08/27 09:37:21;;;;;;;0.80;0.80;;;;;;;;;;5011908;28;20652;-53
2022/08/27 09:39:50;;;;;;;0.82;0.82;;;;;;;;;;5024139;28;20785;-54
2022/08/27 09:42:28;;;;;;;1.00;1.00;;;;;;;;;;5028354;28;20224;-51
2022/08/27 09:44:54;;;;;;;1.00;1.00;;;;;;;;;;5011519;28;20243;-53
2022/08/27 09:47:20;;;;;;;0.90;0.90;;;;;;;;;;5029120;28;20219;-54
2022/08/27 09:49:46;;;;;;;0.90;0.90;;;;;;;;;;5009445;28;20807;-53
2022/08/27 09:52:32;;;;;;;0.90;0.90;;;;;;;;;;5023611;28;20238;-53
2022/08/27 09:54:58;;;;;;;0.80;0.80;;;;;;;;;;5017412;28;20323;-51
2022/08/27 09:57:34;;;;;;;0.93;0.93;;;;;;;;;;5032350;28;20733;-54
2022/08/27 10:00:00;;;;;;;0.80;0.80;;;;;;;;;;5020917;28;20216;-52
2022/08/27 10:02:26;;;;;;;0.93;0.93;;;;;;;;;;5009669;28;20226;-52
2022/08/27 10:04:53;;;;;;;0.80;0.80;;;;;;;;;;5006001;28;20326;-53
2022/08/27 10:07:35;;;;;;;0.88;0.88;;;;;;;;;;5019942;28;20227;-53
2022/08/27 10:10:09;;;;;;;0.90;0.90;;;;;;;;;;5027729;28;20313;-54
2022/08/27 10:12:40;;;;;;;0.90;0.90;;;;;;;;;;5015171;28;20232;-55
2022/08/27 10:15:07;;;;;;;0.80;0.80;;;;;;;;;;5019781;28;20263;-54
2022/08/27 10:17:37;;;;;;;1.00;1.00;;;;;;;;;;5005248;28;20224;-54
2022/08/27 10:20:22;;;;;;;0.88;0.88;;;;;;;;;;5009752;28;20228;-52
2022/08/27 10:22:55;;;;;;;0.80;0.80;;;;;;;;;;5025537;28;20247;-53
2022/08/27 10:25:40;;;;;;;0.80;0.80;;;;;;;;;;5023662;28;20231;-54
2022/08/27 10:28:10;;;;;;;0.90;0.90;;;;;;;;;;5019493;28;20220;-54
2022/08/27 10:30:43;;;;;;;0.80;0.80;;;;;;;;;;5009255;28;20306;-51
2022/08/27 10:33:21;;;;;;;0.90;0.90;;;;;;;;;;4988444;28;20232;-54
2022/08/27 10:36:06;;;;;;;0.80;0.80;;;;;;;;;;5012967;28;20795;-53
2022/08/27 10:38:40;;;;;;;0.80;0.80;;;;;;;;;;5025359;28;20378;-53
2022/08/27 10:41:06;;;;;;;0.80;0.80;;;;;;;;;;5028076;28;20281;-53
2022/08/27 10:43:51;;;;;;;0.98;0.98;;;;;;;;;;5032410;28;20228;-53
2022/08/27 10:46:35;;;;;;;0.70;0.70;;;;;;;;;;5024818;28;20322;-54
2022/08/27 10:49:01;;;;;;;0.70;0.70;;;;;;;;;;5027172;28;20913;-52
2022/08/27 11:14:49;;;;;;;0.73;0.73;;;;;;;;;;5026346;27;20582;-59
2022/08/27 11:17:17;;;;;;;1.00;1.00;;;;;;;;;;5034834;28;20230;-62
2022/08/27 11:26:03;;;;;;;0.90;0.90;;;;;;;;;;5081240;27;21488;-60
2022/08/27 11:32:24;;;;;;;0.85;0.85;;;;;;;;;;5036497;27;20643;-62
2022/08/27 11:55:56;;;;;;;0.73;0.73;;;;;;;;;;5030123;28;20923;-60
2022/08/27 11:58:22;;;;;;;0.80;0.80;;;;;;;;;;5019162;28;20224;-60
2022/08/27 12:00:49;;;;;;;0.70;0.70;;;;;;;;;;5017609;28;21676;-62
2022/08/27 12:03:18;;;;;;;0.70;0.70;;;;;;;;;;5039525;28;20677;-63
2022/08/27 12:05:44;;;;;;;0.70;0.70;;;;;;;;;;5010286;28;20228;-61
2022/08/27 12:08:11;;;;;;;1.00;1.00;;;;;;;;;;5032042;28;20235;-61
2022/08/27 12:10:37;;;;;;;0.80;0.80;;;;;;;;;;5027668;28;20812;-61
2022/08/27 12:13:07;;;;;;;0.70;0.70;;;;;;;;;;5029476;28;20311;-61
2022/08/27 12:15:50;;;;;;;0.70;0.70;;;;;;;;;;5037659;28;20247;-62
2022/08/27 12:18:25;;;;;;;0.80;0.80;;;;;;;;;;5025185;28;20224;-62
2022/08/27 12:20:57;;;;;;;0.82;0.82;;;;;;;;;;5024012;28;20219;-62
2022/08/27 12:23:41;;;;;;;0.77;0.77;;;;;;;;;;5022894;28;20265;-64
2022/08/27 12:26:18;;;;;;;0.80;0.80;;;;;;;;;;5020754;28;20223;-61
2022/08/27 12:28:44;;;;;;;0.70;0.70;;;;;;;;;;5021961;28;20606;-61
2022/08/27 12:31:10;;;;;;;0.70;0.70;;;;;;;;;;5017745;28;20216;-61
2022/08/27 12:33:40;;;;;;;0.70;0.70;;;;;;;;;;5027181;28;20339;-62
2022/08/27 12:36:18;;;;;;;0.75;0.75;;;;;;;;;;5031799;28;20254;-62
2022/08/27 12:38:46;;;;;;;0.60;0.60;;;;;;;;;;5017641;28;20560;-63
2022/08/27 12:41:13;;;;;;;0.70;0.70;;;;;;;;;;5020837;28;20212;-62
2022/08/27 12:43:42;;;;;;;0.70;0.70;;;;;;;;;;5029054;28;20197;-63
2022/08/27 12:46:11;;;;;;;1.00;1.00;;;;;;;;;;5020803;28;20224;-62
2022/08/27 12:48:41;;;;;;;1.10;1.10;;;;;;;;;;5018207;28;20263;-62
2022/08/27 13:45:04;;;;;;;0.77;0.77;;;;;;;;;;5110025;27;20560;-64
2022/08/27 13:47:30;;;;;;;0.80;0.80;;;;;;;;;;5074331;28;20681;-64
2022/08/27 13:50:03;;;;;;;0.70;0.70;;;;;;;;;;5085905;28;20243;-62
2022/08/27 13:52:33;;;;;;;0.70;0.70;;;;;;;;;;5094763;28;20220;-62
2022/08/27 13:55:17;;;;;;;0.60;0.60;;;;;;;;;;5104371;28;20245;-61
2022/08/27 13:57:43;;;;;;;0.70;0.70;;;;;;;;;;5093369;27;20205;-61
2022/08/27 14:00:19;;;;;;;0.70;0.70;;;;;;;;;;5085138;27;20661;-61
2022/08/27 14:02:46;;;;;;;0.70;0.70;;;;;;;;;;5086182;27;20198;-62
2022/08/27 14:05:31;;;;;;;0.70;0.70;;;;;;;;;;5088043;28;20225;-63
2022/08/27 14:36:47;;;;;;;0.90;0.90;;;;;;;;;;5088791;27;20564;-61
2022/08/27 14:39:13;;;;;;;0.73;0.73;;;;;;;;;;5073395;27;20620;-63
2022/08/27 14:41:39;;;;;;;0.70;0.70;;;;;;;;;;5068392;28;20265;-62
2022/08/27 14:44:05;;;;;;;0.75;0.75;;;;;;;;;;5087119;27;20245;-62
2022/08/27 14:46:34;;;;;;;0.80;0.80;;;;;;;;;;5079965;27;20245;-65
2022/08/27 14:49:00;;;;;;;0.70;0.70;;;;;;;;;;5084855;27;20219;-62
2022/08/27 14:51:27;;;;;;;0.60;0.60;;;;;;;;;;5086279;27;20217;-63
2022/08/27 14:53:53;;;;;;;0.68;0.68;;;;;;;;;;5081899;27;20218;-63
2022/08/27 14:56:19;;;;;;;0.70;0.70;;;;;;;;;;5089151;27;20279;-63
2022/08/27 14:58:45;;;;;;;0.60;0.60;;;;;;;;;;5084471;27;20222;-63
2022/08/27 15:01:11;;;;;;;0.70;0.70;;;;;;;;;;5089293;27;20233;-64
2022/08/27 15:03:38;;;;;;;0.60;0.60;;;;;;;;;;5089441;27;20213;-62
2022/08/27 15:06:04;;;;;;;0.70;0.70;;;;;;;;;;5072244;28;20233;-64
2022/08/27 15:08:30;;;;;;;0.68;0.68;;;;;;;;;;5089782;27;20675;-62
2022/08/27 15:10:56;;;;;;;0.60;0.60;;;;;;;;;;5082576;27;20217;-63
2022/08/27 15:13:22;;;;;;;0.68;0.68;;;;;;;;;;5095354;27;20207;-60
2022/08/27 15:15:48;;;;;;;0.70;0.70;;;;;;;;;;5078721;28;20815;-62
2022/08/27 15:18:14;;;;;;;0.60;0.60;;;;;;;;;;5082063;27;20625;-63
2022/08/27 15:20:40;;;;;;;0.70;0.70;;;;;;;;;;5085516;27;20222;-62
2022/08/27 15:23:06;;;;;;;0.70;0.70;;;;;;;;;;5090066;27;20202;-58
2022/08/27 15:25:33;;;;;;;0.80;0.80;;;;;;;;;;5085564;28;20235;-61
2022/08/27 15:27:58;;;;;;;0.70;0.70;;;;;;;;;;5084827;27;20217;-61
2022/08/27 15:30:26;;;;;;;0.70;0.70;;;;;;;;;;5084966;27;20186;-60
2022/08/27 15:32:52;;;;;;;0.90;0.90;;;;;;;;;;5088753;27;20205;-64
2022/08/27 15:35:18;;;;;;;1.00;1.00;;;;;;;;;;5086583;27;25862;-62
2022/08/27 15:37:44;;;;;;;0.90;0.90;;;;;;;;;;5081016;27;20193;-62
2022/08/27 15:40:11;;;;;;;0.90;0.90;;;;;;;;;;5078661;28;20229;-62
2022/08/27 15:42:37;;;;;;;0.88;0.88;;;;;;;;;;5082730;27;20205;-65
2022/08/27 15:45:03;;;;;;;0.80;0.80;;;;;;;;;;5083526;27;20224;-64
2022/08/27 15:47:29;;;;;;;0.80;0.80;;;;;;;;;;5077322;27;20470;-64
2022/08/27 15:49:55;;;;;;;0.90;0.90;;;;;;;;;;5078948;28;20228;-64
2022/08/27 15:52:21;;;;;;;0.90;0.90;;;;;;;;;;5079537;28;20210;-64
2022/08/27 15:54:47;;;;;;;0.90;0.90;;;;;;;;;;5062917;28;20262;-64
2022/08/27 15:57:14;;;;;;;0.80;0.80;;;;;;;;;;5065538;28;20222;-64
2022/08/27 15:59:39;;;;;;;0.90;0.90;;;;;;;;;;5076433;28;21498;-64
2022/08/27 16:02:06;;;;;;;0.90;0.90;;;;;;;;;;5079123;28;20287;-64
2022/08/27 16:04:32;;;;;;;1.02;1.02;;;;;;;;;;5060985;28;20218;-64
2022/08/27 16:06:58;;;;;;;1.05;1.05;;;;;;;;;;5079878;28;20264;-65
2022/08/27 16:09:24;;;;;;;0.90;0.90;;;;;;;;;;5073199;28;20270;-64
2022/08/27 16:11:50;;;;;;;0.90;0.90;;;;;;;;;;5079259;28;21092;-62
2022/08/27 16:14:16;;;;;;;0.93;0.93;;;;;;;;;;5066807;28;20219;-63
2022/08/27 16:16:43;;;;;;;0.80;0.80;;;;;;;;;;5074891;28;20305;-62
2022/08/27 16:19:09;;;;;;;0.90;0.90;;;;;;;;;;5079929;28;20218;-63
2022/08/27 16:21:35;;;;;;;0.88;0.88;;;;;;;;;;5071071;28;20241;-63
2022/08/27 16:24:01;;;;;;;0.80;0.80;;;;;;;;;;5057503;28;20265;-62
2022/08/27 16:26:27;;;;;;;0.90;0.90;;;;;;;;;;5071381;28;20246;-62
2022/08/27 16:28:53;;;;;;;0.88;0.88;;;;;;;;;;5070324;28;20309;-61
2022/08/27 16:31:20;;;;;;;0.90;0.90;;;;;;;;;;5076140;27;20280;-62
2022/08/27 16:33:46;;;;;;;0.80;0.80;;;;;;;;;;5070957;28;20306;-62
2022/08/27 16:36:12;;;;;;;0.90;0.90;;;;;;;;;;5078872;28;20241;-62
2022/08/27 16:38:38;;;;;;;0.90;0.90;;;;;;;;;;5074030;28;20603;-62
2022/08/27 16:41:04;;;;;;;0.80;0.80;;;;;;;;;;5082333;28;20203;-63
2022/08/27 16:43:30;;;;;;;0.98;0.98;;;;;;;;;;5077780;27;20218;-63
2022/08/27 16:45:57;;;;;;;0.90;0.90;;;;;;;;;;5075428;28;20677;-61
2022/08/27 16:51:12;;;;;;;0.90;0.90;;;;;;;;;;5061233;28;20589;-60
2022/08/27 16:53:39;;;;;;;1.00;1.00;;;;;;;;;;5043991;28;20229;-67
2022/08/27 16:56:05;;;;;;;0.60;0.60;;;;;;;;;;5077694;28;22271;-66
2022/08/27 16:58:31;;;;;;;0.80;0.80;;;;;;;;;;5075916;28;20207;-66
2022/08/27 17:00:58;;;;;;;0.95;0.95;;;;;;;;;;5074898;28;20211;-65
2022/08/27 17:03:24;;;;;;;0.80;0.80;;;;;;;;;;5060576;28;20696;-67
2022/08/27 17:05:51;;;;;;;0.70;0.70;;;;;;;;;;5073125;28;20222;-64
2022/08/27 17:08:17;;;;;;;0.70;0.70;;;;;;;;;;5076944;28;20314;-64
2022/08/27 17:10:45;;;;;;;0.80;0.80;;;;;;;;;;5066330;27;20956;-62